sensor_id;sensor_type;location;lat;lon;timestamp;P1;durP1;ratioP1;P2;durP2;ratioP2
59970;SDS011;45825;45.434;9.116;2024-01-11T00:02:19;21.35;;;13.60;;
59970;SDS011;45825;45.434;9.116;2024-01-11T00:04:45;20.10;;;13.48;;
59970;SDS011;45825;45.434;9.116;2024-01-11T00:07:10;24.40;;;14.60;;
59970;SDS011;45825;45.434;9.116;2024-01-11T00:09:39;24.00;;;14.07;;
59970;SDS011;45825;45.434;9.116;2024-01-11T00:12:06;22.00;;;13.23;;
59970;SDS011;45825;45.434;9.116;2024-01-11T00:14:31;21.15;;;13.73;;
59970;SDS011;45825;45.434;9.116;2024-01-11T00:16:56;21.73;;;13.35;;
59970;SDS011;45825;45.434;9.116;2024-01-11T00:19:22;21.33;;;13.00;;
59970;SDS011;45825;45.434;9.116;2024-01-11T00:21:47;22.45;;;14.50;;
59970;SDS011;45825;45.434;9.116;2024-01-11T00:24:12;21.33;;;13.45;;
59970;SDS011;45825;45.434;9.116;2024-01-11T00:26:38;21.50;;;13.68;;
59970;SDS011;45825;45.434;9.116;2024-01-11T00:29:03;22.23;;;13.63;;
59970;SDS011;45825;45.434;9.116;2024-01-11T00:31:29;23.13;;;15.13;;
59970;SDS011;45825;45.434;9.116;2024-01-11T00:33:54;22.85;;;14.20;;
59970;SDS011;45825;45.434;9.116;2024-01-11T00:36:20;22.70;;;14.68;;
59970;SDS011;45825;45.434;9.116;2024-01-11T00:38:45;23.15;;;13.73;;
59970;SDS011;45825;45.434;9.116;2024-01-11T00:41:11;21.38;;;13.90;;
59970;SDS011;45825;45.434;9.116;2024-01-11T00:43:36;23.60;;;14.32;;
59970;SDS011;45825;45.434;9.116;2024-01-11T00:46:01;22.05;;;14.35;;
59970;SDS011;45825;45.434;9.116;2024-01-11T00:48:27;21.98;;;13.98;;
59970;SDS011;45825;45.434;9.116;2024-01-11T00:50:52;21.55;;;13.77;;
59970;SDS011;45825;45.434;9.116;2024-01-11T00:53:17;24.27;;;13.88;;
59970;SDS011;45825;45.434;9.116;2024-01-11T00:55:43;25.17;;;14.35;;
59970;SDS011;45825;45.434;9.116;2024-01-11T00:58:08;22.08;;;13.93;;
59970;SDS011;45825;45.434;9.116;2024-01-11T01:00:33;20.23;;;14.32;;
59970;SDS011;45825;45.434;9.116;2024-01-11T01:02:58;22.70;;;15.77;;
59970;SDS011;45825;45.434;9.116;2024-01-11T01:05:24;27.55;;;17.30;;
59970;SDS011;45825;45.434;9.116;2024-01-11T01:07:49;25.40;;;16.42;;
59970;SDS011;45825;45.434;9.116;2024-01-11T01:10:14;27.05;;;16.15;;
59970;SDS011;45825;45.434;9.116;2024-01-11T01:12:40;26.08;;;16.10;;
59970;SDS011;45825;45.434;9.116;2024-01-11T01:15:05;24.27;;;14.40;;
59970;SDS011;45825;45.434;9.116;2024-01-11T01:17:31;21.42;;;13.95;;
59970;SDS011;45825;45.434;9.116;2024-01-11T01:19:56;24.85;;;13.70;;
59970;SDS011;45825;45.434;9.116;2024-01-11T01:22:22;24.60;;;15.32;;
59970;SDS011;45825;45.434;9.116;2024-01-11T01:24:47;25.20;;;15.93;;
59970;SDS011;45825;45.434;9.116;2024-01-11T01:27:13;23.27;;;14.05;;
59970;SDS011;45825;45.434;9.116;2024-01-11T01:29:38;21.08;;;12.63;;
59970;SDS011;45825;45.434;9.116;2024-01-11T01:32:04;21.98;;;13.98;;
59970;SDS011;45825;45.434;9.116;2024-01-11T01:34:29;21.48;;;13.43;;
59970;SDS011;45825;45.434;9.116;2024-01-11T01:36:55;21.50;;;14.13;;
59970;SDS011;45825;45.434;9.116;2024-01-11T01:39:20;22.13;;;14.02;;
59970;SDS011;45825;45.434;9.116;2024-01-11T01:41:45;23.98;;;15.00;;
59970;SDS011;45825;45.434;9.116;2024-01-11T01:44:10;23.88;;;13.88;;
59970;SDS011;45825;45.434;9.116;2024-01-11T01:46:36;25.67;;;14.57;;
59970;SDS011;45825;45.434;9.116;2024-01-11T01:49:02;22.73;;;13.35;;
59970;SDS011;45825;45.434;9.116;2024-01-11T01:51:29;22.33;;;14.07;;
59970;SDS011;45825;45.434;9.116;2024-01-11T01:53:55;22.65;;;13.90;;
59970;SDS011;45825;45.434;9.116;2024-01-11T01:56:22;23.95;;;14.55;;
59970;SDS011;45825;45.434;9.116;2024-01-11T01:58:47;21.45;;;13.13;;
59970;SDS011;45825;45.434;9.116;2024-01-11T02:01:16;23.65;;;14.50;;
59970;SDS011;45825;45.434;9.116;2024-01-11T02:03:44;20.10;;;13.43;;
59970;SDS011;45825;45.434;9.116;2024-01-11T02:06:10;22.33;;;14.32;;
59970;SDS011;45825;45.434;9.116;2024-01-11T02:08:36;22.02;;;14.18;;
59970;SDS011;45825;45.434;9.116;2024-01-11T02:11:02;21.02;;;13.45;;
59970;SDS011;45825;45.434;9.116;2024-01-11T02:13:28;20.27;;;13.23;;
59970;SDS011;45825;45.434;9.116;2024-01-11T02:15:53;21.02;;;13.52;;
59970;SDS011;45825;45.434;9.116;2024-01-11T02:18:19;22.35;;;13.27;;
59970;SDS011;45825;45.434;9.116;2024-01-11T02:20:44;22.45;;;13.23;;
59970;SDS011;45825;45.434;9.116;2024-01-11T02:23:12;23.23;;;14.77;;
59970;SDS011;45825;45.434;9.116;2024-01-11T02:25:42;23.60;;;14.18;;
59970;SDS011;45825;45.434;9.116;2024-01-11T02:28:08;24.90;;;14.93;;
59970;SDS011;45825;45.434;9.116;2024-01-11T02:30:33;22.35;;;14.23;;
59970;SDS011;45825;45.434;9.116;2024-01-11T02:32:59;23.10;;;14.05;;
59970;SDS011;45825;45.434;9.116;2024-01-11T02:35:24;21.83;;;14.85;;
59970;SDS011;45825;45.434;9.116;2024-01-11T02:37:51;22.13;;;14.45;;
59970;SDS011;45825;45.434;9.116;2024-01-11T02:40:16;21.85;;;13.75;;
59970;SDS011;45825;45.434;9.116;2024-01-11T02:42:44;21.85;;;13.82;;
59970;SDS011;45825;45.434;9.116;2024-01-11T02:45:10;24.40;;;14.73;;
59970;SDS011;45825;45.434;9.116;2024-01-11T02:47:40;22.98;;;15.25;;
59970;SDS011;45825;45.434;9.116;2024-01-11T02:50:05;22.98;;;14.68;;
59970;SDS011;45825;45.434;9.116;2024-01-11T02:52:32;23.73;;;14.63;;
59970;SDS011;45825;45.434;9.116;2024-01-11T02:54:58;22.35;;;14.35;;
59970;SDS011;45825;45.434;9.116;2024-01-11T02:57:23;22.27;;;14.90;;
59970;SDS011;45825;45.434;9.116;2024-01-11T02:59:49;22.10;;;13.75;;
59970;SDS011;45825;45.434;9.116;2024-01-11T03:02:14;22.45;;;14.80;;
59970;SDS011;45825;45.434;9.116;2024-01-11T03:04:39;23.77;;;14.00;;
59970;SDS011;45825;45.434;9.116;2024-01-11T03:07:05;22.08;;;14.48;;
59970;SDS011;45825;45.434;9.116;2024-01-11T03:09:30;19.40;;;13.43;;
59970;SDS011;45825;45.434;9.116;2024-01-11T03:11:55;24.73;;;14.70;;
59970;SDS011;45825;45.434;9.116;2024-01-11T03:14:20;23.35;;;14.38;;
59970;SDS011;45825;45.434;9.116;2024-01-11T03:16:46;23.30;;;14.70;;
59970;SDS011;45825;45.434;9.116;2024-01-11T03:19:11;22.85;;;14.93;;
59970;SDS011;45825;45.434;9.116;2024-01-11T03:21:40;22.98;;;14.57;;
59970;SDS011;45825;45.434;9.116;2024-01-11T03:24:09;22.70;;;13.75;;
59970;SDS011;45825;45.434;9.116;2024-01-11T03:26:34;23.15;;;14.38;;
59970;SDS011;45825;45.434;9.116;2024-01-11T03:28:59;21.15;;;13.90;;
59970;SDS011;45825;45.434;9.116;2024-01-11T03:31:25;20.85;;;13.80;;
59970;SDS011;45825;45.434;9.116;2024-01-11T03:33:50;22.63;;;14.32;;
59970;SDS011;45825;45.434;9.116;2024-01-11T03:36:15;23.40;;;14.20;;
59970;SDS011;45825;45.434;9.116;2024-01-11T03:38:41;24.17;;;14.55;;
59970;SDS011;45825;45.434;9.116;2024-01-11T03:41:09;22.92;;;14.10;;
59970;SDS011;45825;45.434;9.116;2024-01-11T03:43:36;22.30;;;14.35;;
59970;SDS011;45825;45.434;9.116;2024-01-11T03:46:02;23.75;;;14.88;;
59970;SDS011;45825;45.434;9.116;2024-01-11T03:48:27;22.73;;;13.88;;
59970;SDS011;45825;45.434;9.116;2024-01-11T03:50:53;22.55;;;14.73;;
59970;SDS011;45825;45.434;9.116;2024-01-11T03:55:48;22.45;;;14.93;;
59970;SDS011;45825;45.434;9.116;2024-01-11T03:58:14;24.73;;;14.88;;
59970;SDS011;45825;45.434;9.116;2024-01-11T04:00:39;21.63;;;14.32;;
59970;SDS011;45825;45.434;9.116;2024-01-11T04:03:06;22.27;;;14.55;;
59970;SDS011;45825;45.434;9.116;2024-01-11T04:05:31;24.23;;;15.18;;
59970;SDS011;45825;45.434;9.116;2024-01-11T04:07:56;22.35;;;14.02;;
59970;SDS011;45825;45.434;9.116;2024-01-11T04:10:22;21.60;;;14.05;;
59970;SDS011;45825;45.434;9.116;2024-01-11T04:12:47;23.10;;;14.95;;
59970;SDS011;45825;45.434;9.116;2024-01-11T04:15:13;21.92;;;13.60;;
59970;SDS011;45825;45.434;9.116;2024-01-11T04:17:39;23.63;;;15.00;;
59970;SDS011;45825;45.434;9.116;2024-01-11T04:20:05;23.60;;;14.75;;
59970;SDS011;45825;45.434;9.116;2024-01-11T04:22:31;23.90;;;16.35;;
59970;SDS011;45825;45.434;9.116;2024-01-11T04:24:57;23.55;;;15.40;;
59970;SDS011;45825;45.434;9.116;2024-01-11T04:27:22;21.92;;;14.55;;
59970;SDS011;45825;45.434;9.116;2024-01-11T04:29:47;25.45;;;15.75;;
59970;SDS011;45825;45.434;9.116;2024-01-11T04:32:12;23.73;;;15.40;;
59970;SDS011;45825;45.434;9.116;2024-01-11T04:34:38;23.70;;;15.23;;
59970;SDS011;45825;45.434;9.116;2024-01-11T04:37:03;26.70;;;15.75;;
59970;SDS011;45825;45.434;9.116;2024-01-11T04:39:28;23.95;;;15.52;;
59970;SDS011;45825;45.434;9.116;2024-01-11T04:41:54;24.50;;;15.80;;
59970;SDS011;45825;45.434;9.116;2024-01-11T04:44:19;27.55;;;15.95;;
59970;SDS011;45825;45.434;9.116;2024-01-11T04:46:44;23.02;;;14.60;;
59970;SDS011;45825;45.434;9.116;2024-01-11T04:49:10;24.08;;;15.93;;
59970;SDS011;45825;45.434;9.116;2024-01-11T04:51:35;22.73;;;15.55;;
59970;SDS011;45825;45.434;9.116;2024-01-11T04:54:00;26.25;;;15.77;;
59970;SDS011;45825;45.434;9.116;2024-01-11T04:56:26;24.13;;;15.38;;
59970;SDS011;45825;45.434;9.116;2024-01-11T04:58:51;24.75;;;15.52;;
59970;SDS011;45825;45.434;9.116;2024-01-11T05:01:17;23.30;;;15.77;;
59970;SDS011;45825;45.434;9.116;2024-01-11T05:03:43;23.48;;;15.80;;
59970;SDS011;45825;45.434;9.116;2024-01-11T05:06:14;25.27;;;16.25;;
59970;SDS011;45825;45.434;9.116;2024-01-11T05:08:41;25.40;;;16.38;;
59970;SDS011;45825;45.434;9.116;2024-01-11T05:11:06;23.23;;;15.75;;
59970;SDS011;45825;45.434;9.116;2024-01-11T05:13:31;23.33;;;15.27;;
59970;SDS011;45825;45.434;9.116;2024-01-11T05:15:57;22.80;;;15.27;;
59970;SDS011;45825;45.434;9.116;2024-01-11T05:18:22;23.35;;;15.18;;
59970;SDS011;45825;45.434;9.116;2024-01-11T05:20:48;23.92;;;15.90;;
59970;SDS011;45825;45.434;9.116;2024-01-11T05:23:13;23.65;;;16.23;;
59970;SDS011;45825;45.434;9.116;2024-01-11T05:25:38;23.45;;;15.55;;
59970;SDS011;45825;45.434;9.116;2024-01-11T05:28:04;25.45;;;16.00;;
59970;SDS011;45825;45.434;9.116;2024-01-11T05:30:30;24.33;;;15.55;;
59970;SDS011;45825;45.434;9.116;2024-01-11T05:32:55;24.02;;;15.68;;
59970;SDS011;45825;45.434;9.116;2024-01-11T05:35:21;27.23;;;16.67;;
59970;SDS011;45825;45.434;9.116;2024-01-11T05:37:48;26.08;;;15.95;;
59970;SDS011;45825;45.434;9.116;2024-01-11T05:40:14;24.50;;;16.88;;
59970;SDS011;45825;45.434;9.116;2024-01-11T05:42:39;23.98;;;16.20;;
59970;SDS011;45825;45.434;9.116;2024-01-11T05:45:05;24.30;;;15.73;;
59970;SDS011;45825;45.434;9.116;2024-01-11T05:47:30;24.08;;;15.95;;
59970;SDS011;45825;45.434;9.116;2024-01-11T05:49:56;25.85;;;16.95;;
59970;SDS011;45825;45.434;9.116;2024-01-11T05:52:22;28.25;;;20.95;;
59970;SDS011;45825;45.434;9.116;2024-01-11T05:54:47;26.15;;;17.08;;
59970;SDS011;45825;45.434;9.116;2024-01-11T05:57:13;24.92;;;16.52;;
59970;SDS011;45825;45.434;9.116;2024-01-11T05:59:43;25.73;;;17.15;;
59970;SDS011;45825;45.434;9.116;2024-01-11T06:02:09;30.80;;;18.17;;
59970;SDS011;45825;45.434;9.116;2024-01-11T06:04:34;26.70;;;18.17;;
59970;SDS011;45825;45.434;9.116;2024-01-11T06:06:59;27.58;;;18.25;;
59970;SDS011;45825;45.434;9.116;2024-01-11T06:09:24;26.48;;;17.83;;
59970;SDS011;45825;45.434;9.116;2024-01-11T06:11:51;24.10;;;17.63;;
59970;SDS011;45825;45.434;9.116;2024-01-11T06:14:16;24.08;;;16.60;;
59970;SDS011;45825;45.434;9.116;2024-01-11T06:16:41;24.73;;;17.85;;
59970;SDS011;45825;45.434;9.116;2024-01-11T06:19:07;26.90;;;18.00;;
59970;SDS011;45825;45.434;9.116;2024-01-11T06:21:34;28.33;;;17.15;;
59970;SDS011;45825;45.434;9.116;2024-01-11T06:23:59;25.88;;;18.20;;
59970;SDS011;45825;45.434;9.116;2024-01-11T06:26:24;27.55;;;18.63;;
59970;SDS011;45825;45.434;9.116;2024-01-11T06:28:50;25.33;;;17.17;;
59970;SDS011;45825;45.434;9.116;2024-01-11T06:31:15;27.10;;;17.25;;
59970;SDS011;45825;45.434;9.116;2024-01-11T06:33:41;29.50;;;18.13;;
59970;SDS011;45825;45.434;9.116;2024-01-11T06:36:06;29.50;;;18.95;;
59970;SDS011;45825;45.434;9.116;2024-01-11T06:38:35;26.95;;;18.98;;
59970;SDS011;45825;45.434;9.116;2024-01-11T06:41:00;30.65;;;19.30;;
59970;SDS011;45825;45.434;9.116;2024-01-11T06:43:26;29.92;;;19.60;;
59970;SDS011;45825;45.434;9.116;2024-01-11T06:45:51;28.45;;;18.65;;
59970;SDS011;45825;45.434;9.116;2024-01-11T06:48:18;28.92;;;18.85;;
59970;SDS011;45825;45.434;9.116;2024-01-11T06:50:43;28.08;;;18.25;;
59970;SDS011;45825;45.434;9.116;2024-01-11T06:53:08;29.48;;;19.60;;
59970;SDS011;45825;45.434;9.116;2024-01-11T06:55:34;29.58;;;18.55;;
59970;SDS011;45825;45.434;9.116;2024-01-11T06:57:59;31.58;;;21.05;;
59970;SDS011;45825;45.434;9.116;2024-01-11T07:00:26;29.48;;;21.30;;
59970;SDS011;45825;45.434;9.116;2024-01-11T07:02:52;31.52;;;19.52;;
59970;SDS011;45825;45.434;9.116;2024-01-11T07:05:18;34.83;;;19.23;;
59970;SDS011;45825;45.434;9.116;2024-01-11T07:07:44;31.58;;;21.77;;
59970;SDS011;45825;45.434;9.116;2024-01-11T07:10:09;33.80;;;19.95;;
59970;SDS011;45825;45.434;9.116;2024-01-11T07:12:34;32.33;;;19.10;;
59970;SDS011;45825;45.434;9.116;2024-01-11T07:15:02;32.95;;;19.40;;
59970;SDS011;45825;45.434;9.116;2024-01-11T07:17:29;33.40;;;19.13;;
59970;SDS011;45825;45.434;9.116;2024-01-11T07:19:55;30.70;;;20.20;;
59970;SDS011;45825;45.434;9.116;2024-01-11T07:22:20;31.15;;;20.10;;
59970;SDS011;45825;45.434;9.116;2024-01-11T07:24:45;34.60;;;21.35;;
59970;SDS011;45825;45.434;9.116;2024-01-11T07:27:10;34.47;;;19.80;;
59970;SDS011;45825;45.434;9.116;2024-01-11T07:29:36;29.75;;;19.92;;
59970;SDS011;45825;45.434;9.116;2024-01-11T07:32:01;31.08;;;19.45;;
59970;SDS011;45825;45.434;9.116;2024-01-11T07:34:28;29.55;;;18.80;;
59970;SDS011;45825;45.434;9.116;2024-01-11T07:36:54;27.73;;;18.90;;
59970;SDS011;45825;45.434;9.116;2024-01-11T07:39:19;28.50;;;19.23;;
59970;SDS011;45825;45.434;9.116;2024-01-11T07:41:45;28.80;;;19.45;;
59970;SDS011;45825;45.434;9.116;2024-01-11T07:44:10;30.17;;;20.33;;
59970;SDS011;45825;45.434;9.116;2024-01-11T07:46:35;32.78;;;21.15;;
59970;SDS011;45825;45.434;9.116;2024-01-11T07:49:01;39.65;;;29.33;;
59970;SDS011;45825;45.434;9.116;2024-01-11T07:51:29;31.73;;;22.38;;
59970;SDS011;45825;45.434;9.116;2024-01-11T07:53:55;34.38;;;22.95;;
59970;SDS011;45825;45.434;9.116;2024-01-11T07:56:20;33.35;;;22.33;;
59970;SDS011;45825;45.434;9.116;2024-01-11T07:58:45;31.77;;;21.55;;
59970;SDS011;45825;45.434;9.116;2024-01-11T08:01:11;32.13;;;20.33;;
59970;SDS011;45825;45.434;9.116;2024-01-11T08:03:37;30.75;;;20.65;;
59970;SDS011;45825;45.434;9.116;2024-01-11T08:06:03;29.17;;;20.20;;
59970;SDS011;45825;45.434;9.116;2024-01-11T08:08:28;29.48;;;20.58;;
59970;SDS011;45825;45.434;9.116;2024-01-11T08:10:54;28.77;;;19.95;;
59970;SDS011;45825;45.434;9.116;2024-01-11T08:13:19;29.73;;;20.02;;
59970;SDS011;45825;45.434;9.116;2024-01-11T08:15:46;31.45;;;21.27;;
59970;SDS011;45825;45.434;9.116;2024-01-11T08:18:11;33.00;;;21.17;;
59970;SDS011;45825;45.434;9.116;2024-01-11T08:20:38;30.92;;;20.75;;
59970;SDS011;45825;45.434;9.116;2024-01-11T08:23:04;29.63;;;20.33;;
59970;SDS011;45825;45.434;9.116;2024-01-11T08:25:30;31.08;;;20.58;;
59970;SDS011;45825;45.434;9.116;2024-01-11T08:27:55;35.80;;;22.42;;
59970;SDS011;45825;45.434;9.116;2024-01-11T08:30:20;35.15;;;21.67;;
59970;SDS011;45825;45.434;9.116;2024-01-11T08:32:46;36.03;;;21.92;;
59970;SDS011;45825;45.434;9.116;2024-01-11T08:35:11;36.30;;;21.73;;
59970;SDS011;45825;45.434;9.116;2024-01-11T08:37:37;36.85;;;21.90;;
59970;SDS011;45825;45.434;9.116;2024-01-11T08:40:03;36.90;;;22.65;;
59970;SDS011;45825;45.434;9.116;2024-01-11T08:42:32;37.15;;;22.98;;
59970;SDS011;45825;45.434;9.116;2024-01-11T08:44:57;35.30;;;21.10;;
59970;SDS011;45825;45.434;9.116;2024-01-11T08:47:23;36.85;;;22.55;;
59970;SDS011;45825;45.434;9.116;2024-01-11T08:49:49;32.72;;;20.33;;
59970;SDS011;45825;45.434;9.116;2024-01-11T08:52:14;32.47;;;21.33;;
59970;SDS011;45825;45.434;9.116;2024-01-11T08:54:40;33.88;;;21.00;;
59970;SDS011;45825;45.434;9.116;2024-01-11T08:57:05;38.22;;;21.65;;
59970;SDS011;45825;45.434;9.116;2024-01-11T08:59:31;35.70;;;23.55;;
59970;SDS011;45825;45.434;9.116;2024-01-11T09:01:56;44.85;;;26.05;;
59970;SDS011;45825;45.434;9.116;2024-01-11T09:04:21;41.58;;;25.48;;
59970;SDS011;45825;45.434;9.116;2024-01-11T09:06:46;40.15;;;24.65;;
59970;SDS011;45825;45.434;9.116;2024-01-11T09:09:12;35.38;;;21.80;;
59970;SDS011;45825;45.434;9.116;2024-01-11T09:11:38;36.25;;;21.02;;
59970;SDS011;45825;45.434;9.116;2024-01-11T09:14:06;31.92;;;20.92;;
59970;SDS011;45825;45.434;9.116;2024-01-11T09:16:32;32.15;;;20.92;;
59970;SDS011;45825;45.434;9.116;2024-01-11T09:18:57;36.88;;;22.15;;
59970;SDS011;45825;45.434;9.116;2024-01-11T09:21:25;35.40;;;21.77;;
59970;SDS011;45825;45.434;9.116;2024-01-11T09:23:50;36.55;;;22.23;;
59970;SDS011;45825;45.434;9.116;2024-01-11T09:26:16;33.78;;;20.60;;
59970;SDS011;45825;45.434;9.116;2024-01-11T09:28:41;37.13;;;19.95;;
59970;SDS011;45825;45.434;9.116;2024-01-11T09:31:06;32.92;;;20.50;;
59970;SDS011;45825;45.434;9.116;2024-01-11T09:33:32;33.70;;;20.65;;
59970;SDS011;45825;45.434;9.116;2024-01-11T09:35:57;33.85;;;21.63;;
59970;SDS011;45825;45.434;9.116;2024-01-11T09:38:22;41.42;;;21.73;;
59970;SDS011;45825;45.434;9.116;2024-01-11T09:40:49;32.53;;;21.55;;
59970;SDS011;45825;45.434;9.116;2024-01-11T09:43:30;43.35;;;24.38;;
59970;SDS011;45825;45.434;9.116;2024-01-11T09:45:58;37.70;;;23.10;;
59970;SDS011;45825;45.434;9.116;2024-01-11T09:48:24;55.25;;;37.60;;
59970;SDS011;45825;45.434;9.116;2024-01-11T09:50:50;31.08;;;20.55;;
59970;SDS011;45825;45.434;9.116;2024-01-11T09:53:20;32.88;;;18.90;;
59970;SDS011;45825;45.434;9.116;2024-01-11T09:55:48;32.97;;;19.02;;
59970;SDS011;45825;45.434;9.116;2024-01-11T09:58:14;26.85;;;17.63;;
59970;SDS011;45825;45.434;9.116;2024-01-11T10:00:39;30.45;;;18.67;;
59970;SDS011;45825;45.434;9.116;2024-01-11T10:03:06;25.75;;;16.92;;
59970;SDS011;45825;45.434;9.116;2024-01-11T10:05:31;27.77;;;17.13;;
59970;SDS011;45825;45.434;9.116;2024-01-11T10:07:59;28.42;;;16.60;;
59970;SDS011;45825;45.434;9.116;2024-01-11T10:10:25;26.95;;;16.73;;
59970;SDS011;45825;45.434;9.116;2024-01-11T10:12:50;41.13;;;26.02;;
59970;SDS011;45825;45.434;9.116;2024-01-11T10:15:16;64.57;;;45.17;;
59970;SDS011;45825;45.434;9.116;2024-01-11T10:17:42;29.50;;;16.25;;
59970;SDS011;45825;45.434;9.116;2024-01-11T10:20:14;30.08;;;16.48;;
59970;SDS011;45825;45.434;9.116;2024-01-11T10:22:40;28.77;;;17.08;;
59970;SDS011;45825;45.434;9.116;2024-01-11T10:25:09;26.00;;;16.25;;
59970;SDS011;45825;45.434;9.116;2024-01-11T10:27:39;27.02;;;16.58;;
59970;SDS011;45825;45.434;9.116;2024-01-11T10:30:07;27.92;;;17.58;;
59970;SDS011;45825;45.434;9.116;2024-01-11T10:32:32;25.20;;;16.02;;
59970;SDS011;45825;45.434;9.116;2024-01-11T10:34:59;24.75;;;17.20;;
59970;SDS011;45825;45.434;9.116;2024-01-11T10:37:26;26.48;;;16.55;;
59970;SDS011;45825;45.434;9.116;2024-01-11T10:39:53;27.40;;;17.10;;
59970;SDS011;45825;45.434;9.116;2024-01-11T10:42:22;27.63;;;18.17;;
59970;SDS011;45825;45.434;9.116;2024-01-11T10:44:49;25.88;;;16.98;;
59970;SDS011;45825;45.434;9.116;2024-01-11T10:47:20;28.77;;;18.05;;
59970;SDS011;45825;45.434;9.116;2024-01-11T10:49:48;28.85;;;18.17;;
59970;SDS011;45825;45.434;9.116;2024-01-11T10:52:16;27.67;;;17.70;;
59970;SDS011;45825;45.434;9.116;2024-01-11T10:54:49;27.30;;;18.27;;
59970;SDS011;45825;45.434;9.116;2024-01-11T10:57:16;29.58;;;19.00;;
59970;SDS011;45825;45.434;9.116;2024-01-11T10:59:43;27.70;;;17.65;;
59970;SDS011;45825;45.434;9.116;2024-01-11T11:02:09;28.85;;;18.05;;
59970;SDS011;45825;45.434;9.116;2024-01-11T11:04:38;26.92;;;17.83;;
59970;SDS011;45825;45.434;9.116;2024-01-11T11:07:05;26.67;;;17.30;;
59970;SDS011;45825;45.434;9.116;2024-01-11T11:09:32;29.20;;;18.92;;
59970;SDS011;45825;45.434;9.116;2024-01-11T11:12:00;28.80;;;18.15;;
59970;SDS011;45825;45.434;9.116;2024-01-11T11:14:25;27.67;;;17.70;;
59970;SDS011;45825;45.434;9.116;2024-01-11T11:16:51;27.67;;;17.35;;
59970;SDS011;45825;45.434;9.116;2024-01-11T11:19:17;28.52;;;18.60;;
59970;SDS011;45825;45.434;9.116;2024-01-11T11:21:45;27.15;;;18.08;;
59970;SDS011;45825;45.434;9.116;2024-01-11T11:24:13;28.33;;;18.33;;
59970;SDS011;45825;45.434;9.116;2024-01-11T11:26:42;26.52;;;18.15;;
59970;SDS011;45825;45.434;9.116;2024-01-11T11:29:08;27.80;;;17.58;;
59970;SDS011;45825;45.434;9.116;2024-01-11T11:31:43;27.60;;;17.80;;
59970;SDS011;45825;45.434;9.116;2024-01-11T11:34:12;25.90;;;16.88;;
59970;SDS011;45825;45.434;9.116;2024-01-11T11:36:39;30.30;;;18.15;;
59970;SDS011;45825;45.434;9.116;2024-01-11T11:39:09;27.02;;;18.27;;
59970;SDS011;45825;45.434;9.116;2024-01-11T11:41:36;25.10;;;17.35;;
59970;SDS011;45825;45.434;9.116;2024-01-11T11:44:03;25.40;;;17.63;;
59970;SDS011;45825;45.434;9.116;2024-01-11T11:46:30;26.40;;;17.33;;
59970;SDS011;45825;45.434;9.116;2024-01-11T11:48:56;27.02;;;17.67;;
59970;SDS011;45825;45.434;9.116;2024-01-11T11:51:23;23.35;;;17.25;;
59970;SDS011;45825;45.434;9.116;2024-01-11T11:53:49;26.92;;;18.13;;
59970;SDS011;45825;45.434;9.116;2024-01-11T11:56:19;24.42;;;17.60;;
59970;SDS011;45825;45.434;9.116;2024-01-11T11:58:46;25.85;;;17.52;;
59970;SDS011;45825;45.434;9.116;2024-01-11T12:01:13;25.13;;;17.75;;
59970;SDS011;45825;45.434;9.116;2024-01-11T12:03:40;25.10;;;17.10;;
59970;SDS011;45825;45.434;9.116;2024-01-11T12:06:07;23.60;;;17.33;;
59970;SDS011;45825;45.434;9.116;2024-01-11T12:08:35;23.08;;;17.27;;
59970;SDS011;45825;45.434;9.116;2024-01-11T12:11:01;23.98;;;17.88;;
59970;SDS011;45825;45.434;9.116;2024-01-11T12:13:27;24.33;;;17.95;;
59970;SDS011;45825;45.434;9.116;2024-01-11T12:15:53;24.20;;;17.58;;
59970;SDS011;45825;45.434;9.116;2024-01-11T12:18:18;25.80;;;17.67;;
59970;SDS011;45825;45.434;9.116;2024-01-11T12:20:44;26.67;;;17.27;;
59970;SDS011;45825;45.434;9.116;2024-01-11T12:23:10;23.88;;;17.58;;
59970;SDS011;45825;45.434;9.116;2024-01-11T12:25:35;23.40;;;17.98;;
59970;SDS011;45825;45.434;9.116;2024-01-11T12:28:01;24.15;;;17.75;;
59970;SDS011;45825;45.434;9.116;2024-01-11T12:30:27;32.55;;;17.33;;
59970;SDS011;45825;45.434;9.116;2024-01-11T12:32:53;23.85;;;17.58;;
59970;SDS011;45825;45.434;9.116;2024-01-11T12:35:20;25.83;;;17.98;;
59970;SDS011;45825;45.434;9.116;2024-01-11T12:40:37;22.48;;;16.67;;
59970;SDS011;45825;45.434;9.116;2024-01-11T12:43:04;21.92;;;16.48;;
59970;SDS011;45825;45.434;9.116;2024-01-11T12:45:30;23.50;;;16.92;;
59970;SDS011;45825;45.434;9.116;2024-01-11T12:47:57;24.20;;;17.67;;
59970;SDS011;45825;45.434;9.116;2024-01-11T12:50:24;20.33;;;16.42;;
59970;SDS011;45825;45.434;9.116;2024-01-11T12:53:04;22.92;;;17.05;;
59970;SDS011;45825;45.434;9.116;2024-01-11T12:55:31;20.92;;;17.08;;
59970;SDS011;45825;45.434;9.116;2024-01-11T12:58:08;23.98;;;16.55;;
59970;SDS011;45825;45.434;9.116;2024-01-11T13:00:36;19.48;;;15.15;;
59970;SDS011;45825;45.434;9.116;2024-01-11T13:03:04;21.50;;;15.40;;
59970;SDS011;45825;45.434;9.116;2024-01-11T13:05:32;23.38;;;16.55;;
59970;SDS011;45825;45.434;9.116;2024-01-11T13:08:04;20.85;;;16.00;;
59970;SDS011;45825;45.434;9.116;2024-01-11T13:10:33;22.70;;;17.08;;
59970;SDS011;45825;45.434;9.116;2024-01-11T13:13:00;22.95;;;16.65;;
59970;SDS011;45825;45.434;9.116;2024-01-11T13:15:26;21.95;;;16.30;;
59970;SDS011;45825;45.434;9.116;2024-01-11T13:17:52;19.95;;;15.63;;
59970;SDS011;45825;45.434;9.116;2024-01-11T13:20:18;19.35;;;15.80;;
59970;SDS011;45825;45.434;9.116;2024-01-11T13:22:45;20.50;;;15.57;;
59970;SDS011;45825;45.434;9.116;2024-01-11T13:25:10;22.85;;;17.20;;
59970;SDS011;45825;45.434;9.116;2024-01-11T13:27:35;20.13;;;15.60;;
59970;SDS011;45825;45.434;9.116;2024-01-11T13:30:01;21.05;;;15.73;;
59970;SDS011;45825;45.434;9.116;2024-01-11T13:32:26;21.65;;;15.57;;
59970;SDS011;45825;45.434;9.116;2024-01-11T13:34:51;19.20;;;14.85;;
59970;SDS011;45825;45.434;9.116;2024-01-11T13:37:20;20.33;;;15.57;;
59970;SDS011;45825;45.434;9.116;2024-01-11T13:39:45;18.40;;;14.30;;
59970;SDS011;45825;45.434;9.116;2024-01-11T13:42:10;20.65;;;15.25;;
59970;SDS011;45825;45.434;9.116;2024-01-11T13:44:36;22.33;;;15.82;;
59970;SDS011;45825;45.434;9.116;2024-01-11T13:47:01;22.98;;;15.85;;
59970;SDS011;45825;45.434;9.116;2024-01-11T13:49:26;21.52;;;15.95;;
59970;SDS011;45825;45.434;9.116;2024-01-11T13:51:52;21.85;;;16.27;;
59970;SDS011;45825;45.434;9.116;2024-01-11T13:54:17;21.38;;;16.25;;
59970;SDS011;45825;45.434;9.116;2024-01-11T13:56:43;21.77;;;15.40;;
59970;SDS011;45825;45.434;9.116;2024-01-11T13:59:08;21.17;;;15.93;;
59970;SDS011;45825;45.434;9.116;2024-01-11T14:01:34;24.73;;;16.85;;
59970;SDS011;45825;45.434;9.116;2024-01-11T14:03:59;23.90;;;16.55;;
59970;SDS011;45825;45.434;9.116;2024-01-11T14:06:24;25.63;;;15.60;;
59970;SDS011;45825;45.434;9.116;2024-01-11T14:08:49;24.95;;;17.23;;
59970;SDS011;45825;45.434;9.116;2024-01-11T14:11:15;23.58;;;16.52;;
59970;SDS011;45825;45.434;9.116;2024-01-11T14:13:40;23.88;;;16.05;;
59970;SDS011;45825;45.434;9.116;2024-01-11T14:16:05;21.83;;;15.15;;
59970;SDS011;45825;45.434;9.116;2024-01-11T14:18:31;22.88;;;15.38;;
59970;SDS011;45825;45.434;9.116;2024-01-11T14:20:56;24.15;;;15.98;;